createdAt,value
2023-01-25T00:00:23.053Z,1.36
2023-01-25T00:05:25.881Z,1.66
2023-01-25T00:10:27.605Z,1.46
2023-01-25T00:15:29.129Z,1.61
2023-01-25T00:20:32.053Z,1.42
2023-01-25T00:25:33.597Z,1.31
2023-01-25T00:30:35.184Z,0.82
2023-01-25T00:35:38.772Z,1.31
2023-01-25T00:40:40.363Z,1.43
2023-01-25T00:45:41.905Z,1.07
2023-01-25T00:50:44.740Z,1.65
2023-01-25T00:55:51.928Z,1.46
2023-01-25T01:00:53.792Z,1.34
2023-01-25T01:06:05.161Z,1.59
2023-01-25T01:11:09.446Z,1.31
2023-01-25T01:16:12.559Z,1.01
2023-01-25T01:21:15.459Z,1.15
2023-01-25T01:26:18.360Z,1.15
2023-01-25T01:31:21.931Z,1.48
2023-01-25T01:36:27.358Z,1.17
2023-01-25T01:41:28.877Z,1.30
2023-01-25T01:46:34.711Z,0.89
2023-01-25T01:51:45.092Z,1.43
2023-01-25T01:56:51.857Z,1.38
2023-01-25T02:01:54.506Z,1.28
2023-01-25T02:07:03.334Z,0.91
2023-01-25T02:12:07.614Z,1.23
2023-01-25T02:17:11.672Z,0.98
2023-01-25T02:22:19.297Z,1.16
2023-01-25T02:27:22.134Z,1.46
2023-01-25T02:32:23.676Z,1.06
2023-01-25T02:37:25.830Z,1.42
2023-01-25T02:42:31.995Z,1.52
2023-01-25T02:47:33.504Z,1.75
2023-01-25T02:52:35.124Z,1.83
2023-01-25T02:57:38.018Z,1.42
2023-01-25T03:02:39.530Z,1.69
2023-01-25T03:07:41.198Z,1.39
2023-01-25T03:12:44.053Z,1.19
2023-01-25T03:17:45.683Z,1.35
2023-01-25T03:22:47.255Z,1.91
2023-01-25T03:27:50.112Z,1.34
2023-01-25T03:32:51.644Z,0.61
2023-01-25T03:37:53.298Z,0.77
2023-01-25T03:42:56.236Z,1.42
2023-01-25T03:47:57.709Z,0.85
2023-01-25T03:53:00.356Z,0.97
2023-01-25T03:58:03.289Z,1.05
2023-01-25T04:03:04.869Z,0.69
2023-01-25T04:08:06.579Z,0.84
2023-01-25T04:13:09.938Z,0.52
2023-01-25T04:18:11.529Z,0.55
2023-01-25T04:23:13.105Z,1.06
2023-01-25T04:28:15.974Z,1.02
2023-01-25T04:33:17.590Z,1.13
2023-01-25T04:38:19.544Z,1.17
2023-01-25T04:43:22.400Z,0.48
2023-01-25T04:48:23.880Z,0.74
2023-01-25T04:53:25.439Z,0.68
2023-01-25T04:58:28.371Z,1.16
2023-01-25T05:03:29.958Z,0.92
2023-01-25T05:08:31.480Z,1.13
2023-01-25T05:13:34.394Z,0.66
2023-01-25T05:18:47.518Z,0.78
2023-01-25T05:23:50.099Z,0.86
2023-01-25T05:28:53.036Z,0.86
2023-01-25T05:33:54.593Z,0.99
2023-01-25T05:38:56.118Z,0.65
2023-01-25T05:43:58.986Z,1.00
2023-01-25T05:49:00.494Z,0.91
2023-01-25T05:54:02.487Z,0.93
2023-01-25T05:59:05.810Z,0.80
2023-01-25T06:04:07.418Z,0.61
2023-01-25T06:09:12.655Z,0.93
2023-01-25T06:14:15.591Z,1.22
2023-01-25T06:19:17.132Z,1.11
2023-01-25T06:24:18.831Z,1.12
2023-01-25T06:29:21.716Z,1.09
2023-01-25T06:34:23.255Z,1.15
2023-01-25T06:39:24.821Z,1.31
2023-01-25T06:44:27.656Z,1.62
2023-01-25T06:49:29.173Z,1.16
2023-01-25T06:54:30.741Z,1.56
2023-01-25T06:59:55.591Z,1.40
2023-01-25T07:04:57.094Z,1.22
2023-01-25T07:09:58.585Z,1.48
2023-01-25T07:15:01.755Z,1.59
2023-01-25T07:20:03.480Z,1.39
2023-01-25T07:25:05.834Z,2.04
2023-01-25T07:30:10.355Z,1.53
2023-01-25T07:35:12.006Z,1.57
2023-01-25T07:40:13.730Z,2.02
2023-01-25T07:45:16.611Z,1.74
2023-01-25T07:50:18.366Z,0.87
2023-01-25T07:55:20.300Z,0.99
2023-01-25T08:00:24.853Z,1.58
2023-01-25T08:05:26.627Z,1.81
2023-01-25T08:10:28.363Z,1.89
2023-01-25T08:15:31.182Z,1.66
2023-01-25T08:20:32.791Z,1.82
2023-01-25T08:25:34.268Z,1.61
2023-01-25T08:30:41.209Z,1.97
2023-01-25T08:35:54.597Z,1.25
2023-01-25T08:40:56.173Z,0.86
2023-01-25T08:45:59.101Z,0.52
2023-01-25T08:51:01.222Z,0.54
2023-01-25T08:56:04.507Z,0.92
2023-01-25T09:01:09.579Z,0.79
2023-01-25T09:06:12.182Z,0.75
2023-01-25T09:11:16.094Z,0.86
2023-01-25T09:16:21.988Z,1.05
2023-01-25T09:21:23.803Z,-0.60
2023-01-25T09:26:25.453Z,-0.06
2023-01-25T09:31:28.509Z,-0.25
2023-01-25T09:36:30.115Z,0.29
2023-01-25T09:41:58.419Z,-0.61
2023-01-25T09:47:13.635Z,-0.72
2023-01-25T09:52:38.233Z,-0.87
2023-01-25T09:57:42.050Z,-0.16
2023-01-25T10:02:52.537Z,0.26
2023-01-25T10:07:59.410Z,-0.76
2023-01-25T10:13:01.964Z,-0.50
2023-01-25T10:18:16.012Z,-0.85
2023-01-25T10:23:45.965Z,-0.81
2023-01-25T10:28:53.706Z,-0.69
2023-01-25T10:33:58.208Z,-1.14
2023-01-25T10:38:59.871Z,-0.06
2023-01-25T10:44:01.498Z,0.03
2023-01-25T10:49:20.467Z,-0.22
2023-01-25T10:54:23.096Z,-0.85
2023-01-25T10:59:26.998Z,-1.13
2023-01-25T11:04:34.316Z,-0.84
2023-01-25T11:09:38.123Z,-0.75
2023-01-25T11:14:39.735Z,-1.08
2023-01-25T11:19:42.732Z,-0.27
2023-01-25T11:24:44.438Z,-1.19
2023-01-25T11:30:06.132Z,-0.81
2023-01-25T11:35:14.804Z,-0.12
2023-01-25T11:40:22.374Z,-0.19
2023-01-25T11:45:39.469Z,0.57
2023-01-25T11:50:50.876Z,0.48
2023-01-25T11:55:58.710Z,0.54
2023-01-25T12:01:10.635Z,0.38
2023-01-25T12:06:20.682Z,-0.72
2023-01-25T12:11:38.531Z,-0.94
2023-01-25T12:16:57.430Z,-1.01
2023-01-25T12:22:34.861Z,-1.02
2023-01-25T12:27:51.409Z,-0.47
2023-01-25T12:33:09.043Z,-0.88
2023-01-25T12:38:24.811Z,-0.68
2023-01-25T12:43:32.779Z,-0.53
2023-01-25T12:48:40.292Z,-0.54
2023-01-25T12:53:45.167Z,-0.10
2023-01-25T12:58:52.427Z,-0.17
2023-01-25T13:04:09.223Z,-0.15
2023-01-25T13:09:18.861Z,0.43
2023-01-25T13:14:29.643Z,0.14
2023-01-25T13:19:41.348Z,-0.07
2023-01-25T13:25:19.910Z,-0.94
2023-01-25T13:30:32.737Z,-0.81
2023-01-25T13:35:43.308Z,-1.10
2023-01-25T13:41:02.568Z,-0.98
2023-01-25T13:46:06.217Z,-0.35
2023-01-25T13:51:11.962Z,-0.32
2023-01-25T13:56:27.851Z,0.03
2023-01-25T14:01:32.062Z,0.22
2023-01-25T14:06:37.033Z,0.40
2023-01-25T14:11:46.480Z,0.75
2023-01-25T14:17:01.473Z,0.38
2023-01-25T14:22:23.234Z,0.31
2023-01-25T14:27:26.172Z,0.34
2023-01-25T14:32:28.015Z,0.40
2023-01-25T14:37:29.573Z,0.88
2023-01-25T14:42:32.837Z,0.59
2023-01-25T14:47:35.497Z,0.47
2023-01-25T14:52:40.365Z,0.80
2023-01-25T14:57:43.362Z,-0.50
2023-01-25T15:02:48.451Z,-0.39
2023-01-25T15:07:51.975Z,-0.69
2023-01-25T15:13:11.896Z,0.23
2023-01-25T15:18:47.236Z,0.31
2023-01-25T15:23:49.606Z,0.29
2023-01-25T15:28:54.469Z,0.47
2023-01-25T15:33:57.171Z,-0.28
2023-01-25T15:38:58.777Z,-0.74
2023-01-25T15:44:01.699Z,0.32
2023-01-25T15:49:04.941Z,-0.12
2023-01-25T15:54:06.531Z,0.61
2023-01-25T15:59:17.226Z,1.07
2023-01-25T16:04:18.793Z,0.89
2023-01-25T16:09:22.699Z,0.73
2023-01-25T16:14:26.885Z,0.51
2023-01-25T16:19:28.641Z,0.29
2023-01-25T16:24:30.213Z,0.90
2023-01-25T16:29:33.108Z,0.61
2023-01-25T16:34:34.706Z,0.33
2023-01-25T16:39:36.327Z,0.34
2023-01-25T16:44:39.502Z,0.43
2023-01-25T16:49:41.159Z,0.61
2023-01-25T16:54:42.821Z,0.45
2023-01-25T16:59:45.907Z,0.57
2023-01-25T17:04:47.467Z,0.75
2023-01-25T17:09:49.051Z,0.78
2023-01-25T17:14:53.268Z,0.73
2023-01-25T17:19:54.804Z,0.54
2023-01-25T17:24:56.377Z,0.21
2023-01-25T17:29:59.525Z,0.86
2023-01-25T17:35:01.080Z,0.27
2023-01-25T17:40:02.761Z,0.37
2023-01-25T17:45:07.312Z,0.56
2023-01-25T17:50:10.282Z,0.19
2023-01-25T17:55:12.080Z,-0.20
2023-01-25T18:00:30.227Z,0.34
2023-01-25T18:05:31.742Z,0.80
2023-01-25T18:10:33.736Z,0.57
2023-01-25T18:15:37.645Z,0.28
2023-01-25T18:20:39.279Z,0.41
2023-01-25T18:25:40.862Z,0.91
2023-01-25T18:30:50.913Z,0.43
2023-01-25T18:35:52.566Z,0.71
2023-01-25T18:40:54.671Z,0.53
2023-01-25T18:45:58.583Z,0.57
2023-01-25T18:51:05.591Z,0.61
2023-01-25T18:56:10.195Z,1.06
2023-01-25T19:01:15.106Z,0.21
2023-01-25T19:06:17.993Z,0.60
2023-01-25T19:11:21.749Z,0.94
2023-01-25T19:16:24.959Z,0.84
2023-01-25T19:21:27.366Z,1.13
2023-01-25T19:26:29.439Z,0.82
2023-01-25T19:31:32.835Z,1.21
2023-01-25T19:36:36.025Z,0.78
2023-01-25T19:41:38.019Z,1.12
2023-01-25T19:46:41.161Z,0.35
2023-01-25T19:51:44.203Z,-0.09
2023-01-25T19:56:47.925Z,0.16
2023-01-25T20:01:51.351Z,0.60
2023-01-25T20:06:53.064Z,0.74
2023-01-25T20:11:55.854Z,0.56
2023-01-25T20:16:58.772Z,0.54
2023-01-25T20:22:00.598Z,0.21
2023-01-25T20:27:04.254Z,-0.26
2023-01-25T20:32:07.834Z,-0.62
2023-01-25T20:37:09.476Z,-0.82
2023-01-25T20:42:11.060Z,-0.65
2023-01-25T20:47:14.058Z,-0.18
2023-01-25T20:52:15.701Z,-0.06
2023-01-25T20:57:18.836Z,0.48
2023-01-25T21:02:21.794Z,0.11
2023-01-25T21:07:23.516Z,0.73
2023-01-25T21:12:25.198Z,-0.03
2023-01-25T21:17:28.112Z,0.17
2023-01-25T21:22:29.966Z,0.30
2023-01-25T21:27:31.613Z,0.43
2023-01-25T21:32:34.549Z,0.54
2023-01-25T21:37:36.124Z,0.04
2023-01-25T21:42:37.702Z,0.03
2023-01-25T21:47:40.587Z,-0.67
2023-01-25T21:52:42.204Z,-0.25
2023-01-25T21:57:43.803Z,-0.24
2023-01-25T22:02:46.929Z,0.25
2023-01-25T22:07:48.548Z,0.77
2023-01-25T22:12:50.088Z,0.79
2023-01-25T22:17:53.071Z,0.22
2023-01-25T22:22:54.662Z,0.66
2023-01-25T22:27:59.771Z,1.02
2023-01-25T22:33:02.700Z,0.93
2023-01-25T22:38:04.311Z,0.99
2023-01-25T22:43:05.907Z,0.54
2023-01-25T22:48:08.867Z,0.62
2023-01-25T22:53:10.793Z,0.79
2023-01-25T22:58:12.353Z,0.80
2023-01-25T23:03:15.261Z,0.43
2023-01-25T23:08:16.861Z,0.21
2023-01-25T23:13:18.496Z,0.81
2023-01-25T23:18:21.645Z,1.10
2023-01-25T23:23:23.295Z,-0.35
2023-01-25T23:28:24.968Z,-0.10
2023-01-25T23:33:29.362Z,0.85
2023-01-25T23:38:30.961Z,0.54
2023-01-25T23:43:32.703Z,0.97
2023-01-25T23:48:35.705Z,1.14
2023-01-25T23:53:38.209Z,0.61
2023-01-25T23:58:40.243Z,0.57
